sensor_id;sensor_type;location;lat;lon;timestamp;temperature;humidity
71563;DHT22;59391;52.504;13.438;2023-01-15T00:31:34;10.60;79.70
71563;DHT22;59391;52.504;13.438;2023-01-15T00:52:47;10.70;79.90
71563;DHT22;59391;52.504;13.438;2023-01-15T00:59:24;10.70;78.50
71563;DHT22;59391;52.504;13.438;2023-01-15T01:13:43;10.90;78.90
71563;DHT22;59391;52.504;13.438;2023-01-15T01:16:53;10.90;78.70
71563;DHT22;59391;52.504;13.438;2023-01-15T01:38:19;11.00;77.60
71563;DHT22;59391;52.504;13.438;2023-01-15T01:41:50;11.10;77.20
71563;DHT22;59391;52.504;13.438;2023-01-15T01:54:25;11.20;75.90
71563;DHT22;59391;52.504;13.438;2023-01-15T01:56:56;11.20;76.40
71563;DHT22;59391;52.504;13.438;2023-01-15T01:59:23;11.20;76.10
71563;DHT22;59391;52.504;13.438;2023-01-15T02:01:50;11.20;76.80
71563;DHT22;59391;52.504;13.438;2023-01-15T02:04:18;11.20;76.90
71563;DHT22;59391;52.504;13.438;2023-01-15T02:06:46;11.20;77.60
71563;DHT22;59391;52.504;13.438;2023-01-15T02:09:19;11.10;77.60
71563;DHT22;59391;52.504;13.438;2023-01-15T02:11:44;11.10;77.80
71563;DHT22;59391;52.504;13.438;2023-01-15T02:14:30;11.10;78.00
71563;DHT22;59391;52.504;13.438;2023-01-15T02:17:10;11.00;77.90
71563;DHT22;59391;52.504;13.438;2023-01-15T02:23:08;11.00;78.30
71563;DHT22;59391;52.504;13.438;2023-01-15T02:26:07;10.90;78.60
71563;DHT22;59391;52.504;13.438;2023-01-15T02:28:44;10.80;79.00
71563;DHT22;59391;52.504;13.438;2023-01-15T02:31:36;10.70;79.30
71563;DHT22;59391;52.504;13.438;2023-01-15T02:34:12;10.70;80.10
71563;DHT22;59391;52.504;13.438;2023-01-15T02:36:46;10.70;80.30
71563;DHT22;59391;52.504;13.438;2023-01-15T02:39:17;10.70;80.30
71563;DHT22;59391;52.504;13.438;2023-01-15T02:41:47;10.70;80.50
71563;DHT22;59391;52.504;13.438;2023-01-15T02:44:19;10.60;80.80
71563;DHT22;59391;52.504;13.438;2023-01-15T02:46:47;10.60;80.90
71563;DHT22;59391;52.504;13.438;2023-01-15T02:49:16;10.60;81.20
71563;DHT22;59391;52.504;13.438;2023-01-15T02:51:50;10.60;81.30
71563;DHT22;59391;52.504;13.438;2023-01-15T02:54:23;10.50;81.80
71563;DHT22;59391;52.504;13.438;2023-01-15T02:56:52;10.50;82.10
71563;DHT22;59391;52.504;13.438;2023-01-15T02:59:25;10.50;82.10
71563;DHT22;59391;52.504;13.438;2023-01-15T03:02:00;10.40;82.20
71563;DHT22;59391;52.504;13.438;2023-01-15T03:04:46;10.40;82.50
71563;DHT22;59391;52.504;13.438;2023-01-15T03:07:26;10.40;82.60
71563;DHT22;59391;52.504;13.438;2023-01-15T03:09:59;10.40;82.60
71563;DHT22;59391;52.504;13.438;2023-01-15T03:15:58;10.50;82.50
71563;DHT22;59391;52.504;13.438;2023-01-15T03:18:48;10.50;82.80
71563;DHT22;59391;52.504;13.438;2023-01-15T03:21:21;10.50;82.90
71563;DHT22;59391;52.504;13.438;2023-01-15T03:23:55;10.50;82.80
71563;DHT22;59391;52.504;13.438;2023-01-15T03:26:24;10.50;82.90
71563;DHT22;59391;52.504;13.438;2023-01-15T03:29:10;10.40;82.90
71563;DHT22;59391;52.504;13.438;2023-01-15T03:32:12;10.40;82.90
71563;DHT22;59391;52.504;13.438;2023-01-15T03:34:51;10.40;83.10
71563;DHT22;59391;52.504;13.438;2023-01-15T03:37:20;10.50;83.30
71563;DHT22;59391;52.504;13.438;2023-01-15T03:42:53;10.50;83.60
71563;DHT22;59391;52.504;13.438;2023-01-15T03:45:45;10.50;83.80
71563;DHT22;59391;52.504;13.438;2023-01-15T03:48:30;10.50;83.90
71563;DHT22;59391;52.504;13.438;2023-01-15T03:51:07;10.50;83.90
71563;DHT22;59391;52.504;13.438;2023-01-15T03:53:45;10.50;84.00
71563;DHT22;59391;52.504;13.438;2023-01-15T03:56:21;10.50;84.00
71563;DHT22;59391;52.504;13.438;2023-01-15T03:59:10;10.50;84.20
71563;DHT22;59391;52.504;13.438;2023-01-15T04:01:40;10.50;84.50
71563;DHT22;59391;52.504;13.438;2023-01-15T04:04:09;10.50;83.90
71563;DHT22;59391;52.504;13.438;2023-01-15T04:06:38;10.50;84.50
71563;DHT22;59391;52.504;13.438;2023-01-15T04:09:07;10.50;84.70
71563;DHT22;59391;52.504;13.438;2023-01-15T04:11:36;10.50;84.80
71563;DHT22;59391;52.504;13.438;2023-01-15T04:14:02;10.50;83.90
71563;DHT22;59391;52.504;13.438;2023-01-15T04:16:29;10.40;79.20
71563;DHT22;59391;52.504;13.438;2023-01-15T04:18:56;10.30;77.50
71563;DHT22;59391;52.504;13.438;2023-01-15T04:21:22;10.20;78.00
71563;DHT22;59391;52.504;13.438;2023-01-15T04:23:49;10.10;79.10
71563;DHT22;59391;52.504;13.438;2023-01-15T04:26:15;9.90;78.00
71563;DHT22;59391;52.504;13.438;2023-01-15T04:28:41;9.80;79.60
71563;DHT22;59391;52.504;13.438;2023-01-15T04:31:07;9.70;79.30
71563;DHT22;59391;52.504;13.438;2023-01-15T04:33:33;9.60;80.20
71563;DHT22;59391;52.504;13.438;2023-01-15T04:35:59;9.60;78.60
71563;DHT22;59391;52.504;13.438;2023-01-15T04:38:28;9.50;80.00
71563;DHT22;59391;52.504;13.438;2023-01-15T04:40:54;9.40;80.20
71563;DHT22;59391;52.504;13.438;2023-01-15T04:43:38;9.30;76.60
71563;DHT22;59391;52.504;13.438;2023-01-15T04:46:24;9.20;78.50
71563;DHT22;59391;52.504;13.438;2023-01-15T04:48:50;9.00;74.30
71563;DHT22;59391;52.504;13.438;2023-01-15T04:51:19;8.90;74.60
71563;DHT22;59391;52.504;13.438;2023-01-15T04:53:44;8.70;73.50
71563;DHT22;59391;52.504;13.438;2023-01-15T04:56:10;8.60;75.10
71563;DHT22;59391;52.504;13.438;2023-01-15T04:58:36;8.50;76.20
71563;DHT22;59391;52.504;13.438;2023-01-15T05:01:07;8.40;74.90
71563;DHT22;59391;52.504;13.438;2023-01-15T05:03:35;8.30;75.00
71563;DHT22;59391;52.504;13.438;2023-01-15T05:06:02;8.20;76.80
71563;DHT22;59391;52.504;13.438;2023-01-15T05:08:44;8.10;75.70
71563;DHT22;59391;52.504;13.438;2023-01-15T05:11:13;8.00;75.10
71563;DHT22;59391;52.504;13.438;2023-01-15T05:13:45;8.00;78.10
71563;DHT22;59391;52.504;13.438;2023-01-15T05:16:16;7.90;76.10
71563;DHT22;59391;52.504;13.438;2023-01-15T05:19:30;7.90;76.30
71563;DHT22;59391;52.504;13.438;2023-01-15T05:22:03;7.90;75.50
71563;DHT22;59391;52.504;13.438;2023-01-15T05:24:30;7.80;76.70
71563;DHT22;59391;52.504;13.438;2023-01-15T05:27:01;7.90;78.80
71563;DHT22;59391;52.504;13.438;2023-01-15T05:29:32;7.80;76.50
71563;DHT22;59391;52.504;13.438;2023-01-15T05:32:09;7.80;79.10
71563;DHT22;59391;52.504;13.438;2023-01-15T05:34:46;7.80;76.80
71563;DHT22;59391;52.504;13.438;2023-01-15T05:37:21;7.80;77.40
71563;DHT22;59391;52.504;13.438;2023-01-15T05:39:47;7.80;79.00
71563;DHT22;59391;52.504;13.438;2023-01-15T05:42:16;7.80;79.90
71563;DHT22;59391;52.504;13.438;2023-01-15T05:44:41;7.80;77.80
71563;DHT22;59391;52.504;13.438;2023-01-15T05:47:14;7.80;77.80
71563;DHT22;59391;52.504;13.438;2023-01-15T05:49:43;7.80;78.40
71563;DHT22;59391;52.504;13.438;2023-01-15T05:55:12;7.80;79.20
71563;DHT22;59391;52.504;13.438;2023-01-15T05:57:44;7.80;77.50
71563;DHT22;59391;52.504;13.438;2023-01-15T06:04:06;7.80;78.10
71563;DHT22;59391;52.504;13.438;2023-01-15T06:06:39;7.80;80.30
71563;DHT22;59391;52.504;13.438;2023-01-15T06:09:14;7.80;79.00
71563;DHT22;59391;52.504;13.438;2023-01-15T06:11:44;7.80;79.10
71563;DHT22;59391;52.504;13.438;2023-01-15T06:14:20;7.80;79.30
71563;DHT22;59391;52.504;13.438;2023-01-15T06:24:18;7.90;76.80
71563;DHT22;59391;52.504;13.438;2023-01-15T06:27:00;7.90;80.70
71563;DHT22;59391;52.504;13.438;2023-01-15T06:29:38;8.00;80.60
71563;DHT22;59391;52.504;13.438;2023-01-15T06:34:59;8.00;80.10
71563;DHT22;59391;52.504;13.438;2023-01-15T06:37:37;8.00;80.70
71563;DHT22;59391;52.504;13.438;2023-01-15T06:40:46;8.00;80.00
71563;DHT22;59391;52.504;13.438;2023-01-15T06:47:01;8.00;78.50
71563;DHT22;59391;52.504;13.438;2023-01-15T06:53:08;8.00;79.20
71563;DHT22;59391;52.504;13.438;2023-01-15T06:55:38;8.00;77.80
71563;DHT22;59391;52.504;13.438;2023-01-15T06:58:10;7.90;79.80
71563;DHT22;59391;52.504;13.438;2023-01-15T07:03:23;8.00;80.40
71563;DHT22;59391;52.504;13.438;2023-01-15T07:05:49;7.90;80.70
71563;DHT22;59391;52.504;13.438;2023-01-15T07:11:12;7.90;80.20
71563;DHT22;59391;52.504;13.438;2023-01-15T07:24:30;7.90;79.80
71563;DHT22;59391;52.504;13.438;2023-01-15T07:41:05;7.80;79.80
71563;DHT22;59391;52.504;13.438;2023-01-15T07:43:55;7.80;78.70
71563;DHT22;59391;52.504;13.438;2023-01-15T07:46:39;7.80;79.40
71563;DHT22;59391;52.504;13.438;2023-01-15T07:49:27;7.80;78.60
71563;DHT22;59391;52.504;13.438;2023-01-15T07:52:17;7.80;79.90
71563;DHT22;59391;52.504;13.438;2023-01-15T07:58:27;7.80;79.10
71563;DHT22;59391;52.504;13.438;2023-01-15T08:07:14;7.80;78.70
71563;DHT22;59391;52.504;13.438;2023-01-15T08:09:41;7.80;80.20
71563;DHT22;59391;52.504;13.438;2023-01-15T08:12:10;7.80;79.40
71563;DHT22;59391;52.504;13.438;2023-01-15T08:14:55;7.80;79.30
71563;DHT22;59391;52.504;13.438;2023-01-15T08:17:41;7.90;79.20
71563;DHT22;59391;52.504;13.438;2023-01-15T08:20:17;7.80;79.70
71563;DHT22;59391;52.504;13.438;2023-01-15T08:22:45;7.80;78.90
71563;DHT22;59391;52.504;13.438;2023-01-15T08:25:14;7.90;78.80
71563;DHT22;59391;52.504;13.438;2023-01-15T08:27:42;7.90;78.80
71563;DHT22;59391;52.504;13.438;2023-01-15T08:30:18;7.80;76.10
71563;DHT22;59391;52.504;13.438;2023-01-15T08:32:46;7.90;79.10
71563;DHT22;59391;52.504;13.438;2023-01-15T08:35:11;7.90;78.50
71563;DHT22;59391;52.504;13.438;2023-01-15T08:37:38;7.90;78.30
71563;DHT22;59391;52.504;13.438;2023-01-15T08:40:05;7.90;79.00
71563;DHT22;59391;52.504;13.438;2023-01-15T08:42:32;7.90;78.40
71563;DHT22;59391;52.504;13.438;2023-01-15T08:45:01;7.90;77.70
71563;DHT22;59391;52.504;13.438;2023-01-15T08:47:26;7.90;78.00
71563;DHT22;59391;52.504;13.438;2023-01-15T08:49:52;7.90;77.40
71563;DHT22;59391;52.504;13.438;2023-01-15T08:52:19;7.90;77.70
71563;DHT22;59391;52.504;13.438;2023-01-15T08:54:44;7.90;77.50
71563;DHT22;59391;52.504;13.438;2023-01-15T08:57:10;7.90;75.60
71563;DHT22;59391;52.504;13.438;2023-01-15T08:59:37;8.00;78.00
71563;DHT22;59391;52.504;13.438;2023-01-15T09:02:03;8.00;76.30
71563;DHT22;59391;52.504;13.438;2023-01-15T09:04:29;8.00;76.80
71563;DHT22;59391;52.504;13.438;2023-01-15T09:06:54;8.00;77.30
71563;DHT22;59391;52.504;13.438;2023-01-15T09:09:20;8.10;76.80
71563;DHT22;59391;52.504;13.438;2023-01-15T09:11:46;8.10;76.50
71563;DHT22;59391;52.504;13.438;2023-01-15T09:14:14;8.10;76.50
71563;DHT22;59391;52.504;13.438;2023-01-15T09:16:40;8.10;75.60
71563;DHT22;59391;52.504;13.438;2023-01-15T09:19:06;8.10;74.90
71563;DHT22;59391;52.504;13.438;2023-01-15T09:21:33;8.10;75.00
71563;DHT22;59391;52.504;13.438;2023-01-15T09:23:59;8.10;73.00
71563;DHT22;59391;52.504;13.438;2023-01-15T09:26:34;8.10;73.60
71563;DHT22;59391;52.504;13.438;2023-01-15T09:29:01;8.10;74.70
71563;DHT22;59391;52.504;13.438;2023-01-15T09:31:28;8.10;75.00
71563;DHT22;59391;52.504;13.438;2023-01-15T09:33:55;8.10;73.00
71563;DHT22;59391;52.504;13.438;2023-01-15T09:36:29;8.10;72.60
71563;DHT22;59391;52.504;13.438;2023-01-15T09:38:57;8.10;72.10
71563;DHT22;59391;52.504;13.438;2023-01-15T09:41:28;8.10;72.90
71563;DHT22;59391;52.504;13.438;2023-01-15T09:44:52;8.10;72.40
71563;DHT22;59391;52.504;13.438;2023-01-15T09:47:38;8.10;72.60
71563;DHT22;59391;52.504;13.438;2023-01-15T09:55:51;8.20;73.20
71563;DHT22;59391;52.504;13.438;2023-01-15T09:58:22;8.30;74.30
71563;DHT22;59391;52.504;13.438;2023-01-15T10:00:56;8.30;74.10
71563;DHT22;59391;52.504;13.438;2023-01-15T10:03:46;8.30;72.30
71563;DHT22;59391;52.504;13.438;2023-01-15T10:06:49;8.30;72.80
71563;DHT22;59391;52.504;13.438;2023-01-15T10:09:24;8.30;70.70
71563;DHT22;59391;52.504;13.438;2023-01-15T10:12:06;8.30;72.10
71563;DHT22;59391;52.504;13.438;2023-01-15T10:17:45;8.40;71.90
71563;DHT22;59391;52.504;13.438;2023-01-15T10:23:36;8.50;70.70
71563;DHT22;59391;52.504;13.438;2023-01-15T10:26:38;8.50;70.70
71563;DHT22;59391;52.504;13.438;2023-01-15T10:32:32;8.60;69.30
71563;DHT22;59391;52.504;13.438;2023-01-15T10:35:27;8.60;70.80
71563;DHT22;59391;52.504;13.438;2023-01-15T10:38:26;8.70;71.40
71563;DHT22;59391;52.504;13.438;2023-01-15T10:47:21;8.60;69.60
71563;DHT22;59391;52.504;13.438;2023-01-15T10:50:17;8.70;70.10
71563;DHT22;59391;52.504;13.438;2023-01-15T10:52:49;8.70;68.20
71563;DHT22;59391;52.504;13.438;2023-01-15T10:55:45;8.70;68.70
71563;DHT22;59391;52.504;13.438;2023-01-15T10:58:36;8.70;69.10
71563;DHT22;59391;52.504;13.438;2023-01-15T11:01:16;8.80;70.90
71563;DHT22;59391;52.504;13.438;2023-01-15T11:03:46;8.80;70.10
71563;DHT22;59391;52.504;13.438;2023-01-15T11:06:16;8.80;68.50
71563;DHT22;59391;52.504;13.438;2023-01-15T11:09:03;8.90;69.80
71563;DHT22;59391;52.504;13.438;2023-01-15T11:14:48;8.90;68.40
71563;DHT22;59391;52.504;13.438;2023-01-15T11:17:41;8.90;67.70
71563;DHT22;59391;52.504;13.438;2023-01-15T11:20:35;8.90;67.50
71563;DHT22;59391;52.504;13.438;2023-01-15T11:23:14;8.90;67.00
71563;DHT22;59391;52.504;13.438;2023-01-15T11:25:52;8.90;68.00
71563;DHT22;59391;52.504;13.438;2023-01-15T11:28:33;9.00;68.90
71563;DHT22;59391;52.504;13.438;2023-01-15T11:31:00;9.00;66.70
71563;DHT22;59391;52.504;13.438;2023-01-15T11:33:28;9.00;66.10
71563;DHT22;59391;52.504;13.438;2023-01-15T11:35:58;9.00;65.60
71563;DHT22;59391;52.504;13.438;2023-01-15T11:38:28;9.00;67.50
71563;DHT22;59391;52.504;13.438;2023-01-15T11:40:59;9.00;66.50
71563;DHT22;59391;52.504;13.438;2023-01-15T11:43:28;9.10;67.60
71563;DHT22;59391;52.504;13.438;2023-01-15T11:46:31;9.00;65.10
71563;DHT22;59391;52.504;13.438;2023-01-15T11:49:20;9.00;65.50
71563;DHT22;59391;52.504;13.438;2023-01-15T11:52:24;9.00;65.00
71563;DHT22;59391;52.504;13.438;2023-01-15T11:55:02;9.00;64.60
71563;DHT22;59391;52.504;13.438;2023-01-15T11:57:37;8.90;64.80
71563;DHT22;59391;52.504;13.438;2023-01-15T12:00:04;8.90;64.90
71563;DHT22;59391;52.504;13.438;2023-01-15T12:02:37;8.90;63.20
71563;DHT22;59391;52.504;13.438;2023-01-15T12:05:30;8.90;64.60
71563;DHT22;59391;52.504;13.438;2023-01-15T12:08:01;8.90;66.10
71563;DHT22;59391;52.504;13.438;2023-01-15T12:10:43;9.00;64.40
71563;DHT22;59391;52.504;13.438;2023-01-15T12:16:28;9.00;62.90
71563;DHT22;59391;52.504;13.438;2023-01-15T12:25:28;9.00;63.00
71563;DHT22;59391;52.504;13.438;2023-01-15T12:28:28;9.00;63.40
71563;DHT22;59391;52.504;13.438;2023-01-15T12:31:02;9.10;63.40
71563;DHT22;59391;52.504;13.438;2023-01-15T12:33:43;9.00;61.00
71563;DHT22;59391;52.504;13.438;2023-01-15T12:36:20;9.00;62.10
71563;DHT22;59391;52.504;13.438;2023-01-15T12:41:42;9.00;61.60
71563;DHT22;59391;52.504;13.438;2023-01-15T12:47:36;9.10;61.90
71563;DHT22;59391;52.504;13.438;2023-01-15T12:50:40;9.20;60.70
71563;DHT22;59391;52.504;13.438;2023-01-15T12:53:36;9.10;60.10
71563;DHT22;59391;52.504;13.438;2023-01-15T13:04:16;9.20;59.30
71563;DHT22;59391;52.504;13.438;2023-01-15T13:06:51;9.10;59.60
71563;DHT22;59391;52.504;13.438;2023-01-15T13:09:42;9.20;59.40
71563;DHT22;59391;52.504;13.438;2023-01-15T13:12:13;9.10;60.00
71563;DHT22;59391;52.504;13.438;2023-01-15T13:14:41;9.10;59.70
71563;DHT22;59391;52.504;13.438;2023-01-15T13:17:26;9.10;59.00
71563;DHT22;59391;52.504;13.438;2023-01-15T13:20:26;9.20;61.00
71563;DHT22;59391;52.504;13.438;2023-01-15T13:23:24;9.30;58.10
71563;DHT22;59391;52.504;13.438;2023-01-15T13:26:16;9.50;58.40
71563;DHT22;59391;52.504;13.438;2023-01-15T13:29:42;9.70;56.30
71563;DHT22;59391;52.504;13.438;2023-01-15T13:32:49;9.90;57.30
71563;DHT22;59391;52.504;13.438;2023-01-15T13:35:31;10.00;57.50
71563;DHT22;59391;52.504;13.438;2023-01-15T13:38:05;10.00;55.40
71563;DHT22;59391;52.504;13.438;2023-01-15T13:40:42;9.90;53.90
71563;DHT22;59391;52.504;13.438;2023-01-15T13:43:33;9.90;56.40
71563;DHT22;59391;52.504;13.438;2023-01-15T13:46:07;9.80;53.40
71563;DHT22;59391;52.504;13.438;2023-01-15T13:48:42;9.80;56.30
71563;DHT22;59391;52.504;13.438;2023-01-15T13:51:29;9.80;55.00
71563;DHT22;59391;52.504;13.438;2023-01-15T13:54:01;9.60;55.80
71563;DHT22;59391;52.504;13.438;2023-01-15T13:56:32;9.50;55.30
71563;DHT22;59391;52.504;13.438;2023-01-15T13:59:05;9.40;55.60
71563;DHT22;59391;52.504;13.438;2023-01-15T14:01:33;9.40;56.30
71563;DHT22;59391;52.504;13.438;2023-01-15T14:04:04;9.30;56.40
71563;DHT22;59391;52.504;13.438;2023-01-15T14:09:12;9.30;56.10
71563;DHT22;59391;52.504;13.438;2023-01-15T14:21:02;9.30;57.80
71563;DHT22;59391;52.504;13.438;2023-01-15T14:26:53;9.60;57.00
71563;DHT22;59391;52.504;13.438;2023-01-15T14:35:21;9.90;56.60
71563;DHT22;59391;52.504;13.438;2023-01-15T14:37:53;9.90;55.50
71563;DHT22;59391;52.504;13.438;2023-01-15T14:40:25;9.90;56.40
71563;DHT22;59391;52.504;13.438;2023-01-15T14:42:58;9.90;55.10
71563;DHT22;59391;52.504;13.438;2023-01-15T14:45:32;9.80;55.90
71563;DHT22;59391;52.504;13.438;2023-01-15T14:48:18;9.80;56.00
71563;DHT22;59391;52.504;13.438;2023-01-15T14:51:13;9.60;56.20
71563;DHT22;59391;52.504;13.438;2023-01-15T14:53:50;9.50;56.00
71563;DHT22;59391;52.504;13.438;2023-01-15T14:56:19;9.50;56.90
71563;DHT22;59391;52.504;13.438;2023-01-15T14:58:52;9.40;57.10
71563;DHT22;59391;52.504;13.438;2023-01-15T15:01:34;9.30;57.10
71563;DHT22;59391;52.504;13.438;2023-01-15T15:04:14;9.30;56.10
71563;DHT22;59391;52.504;13.438;2023-01-15T15:06:56;9.20;57.60
71563;DHT22;59391;52.504;13.438;2023-01-15T15:12:17;9.20;56.70
71563;DHT22;59391;52.504;13.438;2023-01-15T15:17:58;9.00;56.40
71563;DHT22;59391;52.504;13.438;2023-01-15T15:23:05;8.80;57.20
71563;DHT22;59391;52.504;13.438;2023-01-15T15:25:37;8.80;58.50
71563;DHT22;59391;52.504;13.438;2023-01-15T15:28:07;8.70;57.10
71563;DHT22;59391;52.504;13.438;2023-01-15T15:30:38;8.60;58.00
71563;DHT22;59391;52.504;13.438;2023-01-15T15:33:15;8.60;57.60
71563;DHT22;59391;52.504;13.438;2023-01-15T15:36:02;8.60;57.90
71563;DHT22;59391;52.504;13.438;2023-01-15T15:38:29;8.50;57.40
71563;DHT22;59391;52.504;13.438;2023-01-15T15:41:01;8.50;58.20
71563;DHT22;59391;52.504;13.438;2023-01-15T15:43:51;8.50;58.50
71563;DHT22;59391;52.504;13.438;2023-01-15T15:46:47;8.40;58.10
71563;DHT22;59391;52.504;13.438;2023-01-15T15:49:40;8.40;57.80
71563;DHT22;59391;52.504;13.438;2023-01-15T15:52:20;8.30;58.60
71563;DHT22;59391;52.504;13.438;2023-01-15T15:54:58;8.30;58.20
71563;DHT22;59391;52.504;13.438;2023-01-15T15:57:28;8.20;57.60
71563;DHT22;59391;52.504;13.438;2023-01-15T15:59:56;8.20;59.30
71563;DHT22;59391;52.504;13.438;2023-01-15T16:02:30;8.10;58.40
71563;DHT22;59391;52.504;13.438;2023-01-15T16:05:27;8.10;58.30
71563;DHT22;59391;52.504;13.438;2023-01-15T16:07:51;8.00;58.80
71563;DHT22;59391;52.504;13.438;2023-01-15T16:10:25;8.00;59.00
71563;DHT22;59391;52.504;13.438;2023-01-15T16:12:57;8.00;59.30
71563;DHT22;59391;52.504;13.438;2023-01-15T16:15:29;8.00;59.00
71563;DHT22;59391;52.504;13.438;2023-01-15T16:17:57;8.00;58.90
71563;DHT22;59391;52.504;13.438;2023-01-15T16:20:26;7.90;58.50
71563;DHT22;59391;52.504;13.438;2023-01-15T16:22:57;7.90;58.00
71563;DHT22;59391;52.504;13.438;2023-01-15T16:25:37;7.80;58.70
71563;DHT22;59391;52.504;13.438;2023-01-15T16:28:06;7.80;59.00
71563;DHT22;59391;52.504;13.438;2023-01-15T16:30:58;7.70;58.00
71563;DHT22;59391;52.504;13.438;2023-01-15T16:33:27;7.70;58.80
71563;DHT22;59391;52.504;13.438;2023-01-15T16:35:58;7.60;58.20
71563;DHT22;59391;52.504;13.438;2023-01-15T16:38:29;7.70;58.90
71563;DHT22;59391;52.504;13.438;2023-01-15T16:40:58;7.60;58.10
71563;DHT22;59391;52.504;13.438;2023-01-15T16:43:25;7.60;58.10
71563;DHT22;59391;52.504;13.438;2023-01-15T16:50:48;7.60;58.00
71563;DHT22;59391;52.504;13.438;2023-01-15T16:56:01;7.50;58.00
71563;DHT22;59391;52.504;13.438;2023-01-15T16:58:35;7.50;57.70
71563;DHT22;59391;52.504;13.438;2023-01-15T17:01:23;7.50;57.50
71563;DHT22;59391;52.504;13.438;2023-01-15T17:03:59;7.50;57.00
71563;DHT22;59391;52.504;13.438;2023-01-15T17:06:27;7.50;57.80
71563;DHT22;59391;52.504;13.438;2023-01-15T17:08:54;7.50;56.70
71563;DHT22;59391;52.504;13.438;2023-01-15T17:11:27;7.50;57.40
71563;DHT22;59391;52.504;13.438;2023-01-15T17:14:09;7.50;57.50
71563;DHT22;59391;52.504;13.438;2023-01-15T17:16:43;7.50;57.20
71563;DHT22;59391;52.504;13.438;2023-01-15T17:19:09;7.50;57.10
71563;DHT22;59391;52.504;13.438;2023-01-15T17:21:36;7.50;56.60
71563;DHT22;59391;52.504;13.438;2023-01-15T17:24:07;7.40;57.20
71563;DHT22;59391;52.504;13.438;2023-01-15T17:26:33;7.40;57.00
71563;DHT22;59391;52.504;13.438;2023-01-15T17:28:59;7.40;56.90
71563;DHT22;59391;52.504;13.438;2023-01-15T17:31:32;7.40;56.70
71563;DHT22;59391;52.504;13.438;2023-01-15T17:34:01;7.40;57.00
71563;DHT22;59391;52.504;13.438;2023-01-15T17:36:28;7.40;56.90
71563;DHT22;59391;52.504;13.438;2023-01-15T17:38:55;7.40;56.50
71563;DHT22;59391;52.504;13.438;2023-01-15T17:41:22;7.40;56.60
71563;DHT22;59391;52.504;13.438;2023-01-15T17:43:48;7.40;57.30
71563;DHT22;59391;52.504;13.438;2023-01-15T17:46:15;7.40;56.30
71563;DHT22;59391;52.504;13.438;2023-01-15T17:48:41;7.50;56.20
71563;DHT22;59391;52.504;13.438;2023-01-15T17:51:13;7.40;56.00
71563;DHT22;59391;52.504;13.438;2023-01-15T17:53:39;7.50;56.20
71563;DHT22;59391;52.504;13.438;2023-01-15T17:56:06;7.50;56.00
71563;DHT22;59391;52.504;13.438;2023-01-15T17:58:51;7.50;56.00
71563;DHT22;59391;52.504;13.438;2023-01-15T18:01:43;7.50;55.30
71563;DHT22;59391;52.504;13.438;2023-01-15T18:04:36;7.60;55.30
71563;DHT22;59391;52.504;13.438;2023-01-15T18:07:26;7.60;55.30
71563;DHT22;59391;52.504;13.438;2023-01-15T18:09:55;7.60;55.10
71563;DHT22;59391;52.504;13.438;2023-01-15T18:12:28;7.60;54.90
71563;DHT22;59391;52.504;13.438;2023-01-15T18:14:55;7.50;54.80
71563;DHT22;59391;52.504;13.438;2023-01-15T18:17:20;7.60;54.60
71563;DHT22;59391;52.504;13.438;2023-01-15T18:19:49;7.60;54.60
71563;DHT22;59391;52.504;13.438;2023-01-15T18:22:15;7.60;54.70
71563;DHT22;59391;52.504;13.438;2023-01-15T18:24:41;7.60;54.60
71563;DHT22;59391;52.504;13.438;2023-01-15T18:27:07;7.60;54.50
71563;DHT22;59391;52.504;13.438;2023-01-15T18:29:36;7.60;54.50
71563;DHT22;59391;52.504;13.438;2023-01-15T18:32:05;7.70;54.70
71563;DHT22;59391;52.504;13.438;2023-01-15T18:34:33;7.60;54.40
71563;DHT22;59391;52.504;13.438;2023-01-15T18:36:59;7.60;54.10
71563;DHT22;59391;52.504;13.438;2023-01-15T18:39:25;7.60;54.40
71563;DHT22;59391;52.504;13.438;2023-01-15T18:41:51;7.60;54.10
71563;DHT22;59391;52.504;13.438;2023-01-15T18:44:19;7.60;54.40
71563;DHT22;59391;52.504;13.438;2023-01-15T18:47:10;7.60;54.30
71563;DHT22;59391;52.504;13.438;2023-01-15T18:49:41;7.60;54.20
71563;DHT22;59391;52.504;13.438;2023-01-15T18:52:10;7.70;54.50
71563;DHT22;59391;52.504;13.438;2023-01-15T18:54:56;7.70;54.20
71563;DHT22;59391;52.504;13.438;2023-01-15T18:57:22;7.70;54.00
71563;DHT22;59391;52.504;13.438;2023-01-15T18:59:49;7.70;53.90
71563;DHT22;59391;52.504;13.438;2023-01-15T19:02:16;7.70;53.90
71563;DHT22;59391;52.504;13.438;2023-01-15T19:04:43;7.70;54.00
71563;DHT22;59391;52.504;13.438;2023-01-15T19:07:09;7.70;53.80
71563;DHT22;59391;52.504;13.438;2023-01-15T19:09:38;7.70;54.00
71563;DHT22;59391;52.504;13.438;2023-01-15T19:12:06;7.70;53.80
71563;DHT22;59391;52.504;13.438;2023-01-15T19:14:33;7.70;53.60
71563;DHT22;59391;52.504;13.438;2023-01-15T19:17:22;7.70;53.70
71563;DHT22;59391;52.504;13.438;2023-01-15T19:20:11;7.60;53.60
71563;DHT22;59391;52.504;13.438;2023-01-15T19:22:39;7.60;53.90
71563;DHT22;59391;52.504;13.438;2023-01-15T19:25:37;7.60;53.80
71563;DHT22;59391;52.504;13.438;2023-01-15T19:28:06;7.70;53.80
71563;DHT22;59391;52.504;13.438;2023-01-15T19:30:37;7.70;53.70
71563;DHT22;59391;52.504;13.438;2023-01-15T19:33:04;7.70;53.70
71563;DHT22;59391;52.504;13.438;2023-01-15T19:35:30;7.70;53.70
71563;DHT22;59391;52.504;13.438;2023-01-15T19:37:56;7.60;53.50
71563;DHT22;59391;52.504;13.438;2023-01-15T19:40:23;7.60;53.70
71563;DHT22;59391;52.504;13.438;2023-01-15T19:42:50;7.70;53.50
71563;DHT22;59391;52.504;13.438;2023-01-15T19:45:43;7.70;53.40
71563;DHT22;59391;52.504;13.438;2023-01-15T19:48:28;7.70;53.70
71563;DHT22;59391;52.504;13.438;2023-01-15T19:51:12;7.70;53.60
71563;DHT22;59391;52.504;13.438;2023-01-15T19:53:38;7.60;53.50
71563;DHT22;59391;52.504;13.438;2023-01-15T19:56:07;7.70;53.80
71563;DHT22;59391;52.504;13.438;2023-01-15T19:58:35;7.70;53.90
71563;DHT22;59391;52.504;13.438;2023-01-15T20:01:02;7.70;53.80
71563;DHT22;59391;52.504;13.438;2023-01-15T20:03:37;7.70;53.70
71563;DHT22;59391;52.504;13.438;2023-01-15T20:06:09;7.70;53.80
71563;DHT22;59391;52.504;13.438;2023-01-15T20:08:35;7.70;53.60
71563;DHT22;59391;52.504;13.438;2023-01-15T20:11:00;7.70;53.50
71563;DHT22;59391;52.504;13.438;2023-01-15T20:13:26;7.70;53.60
71563;DHT22;59391;52.504;13.438;2023-01-15T20:16:15;7.70;53.50
71563;DHT22;59391;52.504;13.438;2023-01-15T20:18:44;7.70;53.60
71563;DHT22;59391;52.504;13.438;2023-01-15T20:21:12;7.70;53.40
71563;DHT22;59391;52.504;13.438;2023-01-15T20:23:40;7.70;53.30
71563;DHT22;59391;52.504;13.438;2023-01-15T20:26:09;7.80;53.30
71563;DHT22;59391;52.504;13.438;2023-01-15T20:28:38;7.70;53.30
71563;DHT22;59391;52.504;13.438;2023-01-15T20:31:06;7.70;53.40